createdAt,value
2019-03-19T00:00:16.909Z,59.10
2019-03-19T00:02:45.735Z,59.10
2019-03-19T00:05:14.462Z,59.00
2019-03-19T00:07:43.239Z,59.10
2019-03-19T00:10:12.001Z,59.10
2019-03-19T00:12:40.735Z,59.20
2019-03-19T00:15:09.576Z,59.30
2019-03-19T00:17:38.412Z,59.40
2019-03-19T00:20:07.771Z,59.20
2019-03-19T00:22:36.523Z,59.10
2019-03-19T00:25:05.401Z,59.10
2019-03-19T00:27:34.223Z,59.20
2019-03-19T00:30:02.957Z,59.20
2019-03-19T00:32:31.875Z,59.20
2019-03-19T00:35:00.637Z,59.30
2019-03-19T00:37:29.400Z,59.40
2019-03-19T00:39:58.162Z,59.20
2019-03-19T00:42:26.905Z,59.20
2019-03-19T00:44:55.665Z,59.20
2019-03-19T00:47:24.406Z,59.20
2019-03-19T00:49:53.172Z,59.20
2019-03-19T00:52:21.979Z,59.30
2019-03-19T00:54:50.715Z,59.30
2019-03-19T00:57:19.495Z,59.30
2019-03-19T00:59:48.238Z,59.30
2019-03-19T01:02:16.995Z,59.30
2019-03-19T01:04:45.771Z,59.30
2019-03-19T01:07:14.563Z,59.30
2019-03-19T01:09:43.313Z,59.30
2019-03-19T01:12:12.043Z,59.30
2019-03-19T01:14:40.957Z,59.30
2019-03-19T01:17:09.791Z,59.50
2019-03-19T01:19:38.543Z,59.60
2019-03-19T01:22:07.289Z,59.20
2019-03-19T01:24:36.043Z,59.00
2019-03-19T01:27:04.767Z,59.00
2019-03-19T01:29:33.539Z,59.00
2019-03-19T01:32:02.289Z,59.10
2019-03-19T01:34:31.022Z,59.20
2019-03-19T01:37:00.369Z,59.20
2019-03-19T01:39:29.121Z,59.30
2019-03-19T01:41:57.851Z,59.30
2019-03-19T01:44:26.613Z,59.30
2019-03-19T01:46:55.369Z,59.20
2019-03-19T01:49:24.147Z,59.30
2019-03-19T01:51:53.043Z,59.30
2019-03-19T01:54:21.799Z,59.30
2019-03-19T01:56:50.773Z,59.50
2019-03-19T01:59:19.613Z,59.50
2019-03-19T02:01:48.379Z,59.40
2019-03-19T02:04:17.303Z,59.10
2019-03-19T02:06:46.061Z,59.00
2019-03-19T02:09:14.833Z,59.00
2019-03-19T02:11:43.586Z,59.00
2019-03-19T02:14:12.351Z,59.10
2019-03-19T02:16:41.128Z,59.10
2019-03-19T02:19:09.993Z,58.80
2019-03-19T02:21:38.727Z,59.20
2019-03-19T02:24:07.466Z,59.20
2019-03-19T02:26:36.211Z,59.10
2019-03-19T02:29:04.963Z,59.20
2019-03-19T02:31:33.743Z,59.20
2019-03-19T02:34:02.546Z,59.20
2019-03-19T02:36:31.285Z,59.30
2019-03-19T02:39:00.055Z,59.30
2019-03-19T02:41:28.889Z,59.40
2019-03-19T02:43:57.656Z,59.30
2019-03-19T02:46:26.414Z,59.30
2019-03-19T02:48:55.145Z,59.40
2019-03-19T02:51:23.892Z,59.40
2019-03-19T02:53:52.653Z,59.40
2019-03-19T02:56:32.438Z,59.40
2019-03-19T02:58:52.040Z,59.50
2019-03-19T03:01:20.794Z,59.50
2019-03-19T03:03:49.800Z,59.40
2019-03-19T03:06:18.543Z,59.20
2019-03-19T03:08:47.368Z,59.00
2019-03-19T03:11:16.119Z,59.00
2019-03-19T03:13:44.957Z,59.00
2019-03-19T03:16:13.700Z,59.10
2019-03-19T03:18:42.453Z,59.50
2019-03-19T03:21:11.179Z,59.00
2019-03-19T03:23:39.936Z,59.00
2019-03-19T03:26:08.696Z,59.10
2019-03-19T03:28:37.432Z,59.10
2019-03-19T03:31:06.346Z,59.10
2019-03-19T03:33:35.164Z,59.20
2019-03-19T03:36:04.000Z,59.20
2019-03-19T03:38:32.833Z,59.20
2019-03-19T03:41:03.950Z,59.30
2019-03-19T03:43:32.706Z,59.30
2019-03-19T03:46:01.651Z,59.20
2019-03-19T03:48:30.454Z,59.20
2019-03-19T03:50:59.208Z,59.30
2019-03-19T03:53:28.036Z,59.30
2019-03-19T03:55:56.839Z,59.30
2019-03-19T03:58:25.648Z,59.40
2019-03-19T04:00:54.435Z,59.50
2019-03-19T04:03:23.173Z,59.50
2019-03-19T04:05:52.021Z,59.30
2019-03-19T04:08:20.764Z,58.90
2019-03-19T04:10:49.514Z,58.90
2019-03-19T04:13:18.282Z,59.00
2019-03-19T04:15:47.221Z,58.90
2019-03-19T04:18:15.995Z,58.90
2019-03-19T04:20:44.748Z,58.90
2019-03-19T04:23:13.493Z,59.00
2019-03-19T04:25:42.232Z,59.00
2019-03-19T04:28:10.984Z,59.00
2019-03-19T04:30:39.747Z,59.10
2019-03-19T04:33:08.505Z,59.20
2019-03-19T04:35:37.283Z,59.20
2019-03-19T04:38:06.131Z,59.10
2019-03-19T04:40:34.892Z,59.30
2019-03-19T04:43:03.633Z,59.50
2019-03-19T04:45:32.382Z,59.20
2019-03-19T04:48:03.504Z,59.10
2019-03-19T04:50:31.607Z,59.00
2019-03-19T04:53:00.351Z,59.00
2019-03-19T04:55:29.248Z,59.00
2019-03-19T04:57:58.016Z,59.00
2019-03-19T05:00:26.770Z,59.10
2019-03-19T05:02:55.522Z,59.10
2019-03-19T05:05:24.270Z,59.10
2019-03-19T05:07:54.110Z,59.10
2019-03-19T05:10:22.944Z,59.00
2019-03-19T05:12:51.677Z,59.10
2019-03-19T05:15:20.430Z,59.10
2019-03-19T05:17:50.537Z,59.10
2019-03-19T05:20:19.352Z,59.20
2019-03-19T05:22:48.153Z,59.40
2019-03-19T05:25:16.895Z,59.40
2019-03-19T05:27:45.657Z,59.10
2019-03-19T05:30:14.620Z,59.00
2019-03-19T05:32:43.400Z,58.90
2019-03-19T05:35:12.177Z,59.00
2019-03-19T05:37:41.004Z,59.00
2019-03-19T05:40:10.177Z,58.90
2019-03-19T05:42:38.936Z,59.10
2019-03-19T05:45:09.414Z,59.60
2019-03-19T05:47:40.332Z,59.10
2019-03-19T05:50:09.714Z,59.10
2019-03-19T05:52:38.474Z,59.10
2019-03-19T05:55:07.785Z,59.10
2019-03-19T05:57:36.591Z,59.10
2019-03-19T06:00:06.242Z,59.20
2019-03-19T06:02:35.006Z,59.20
2019-03-19T06:05:03.842Z,59.10
2019-03-19T06:07:32.679Z,59.20
2019-03-19T06:10:01.440Z,59.20
2019-03-19T06:12:30.172Z,59.20
2019-03-19T06:14:58.949Z,59.20
2019-03-19T06:17:27.772Z,59.20
2019-03-19T06:19:56.567Z,59.20
2019-03-19T06:22:25.306Z,59.20
2019-03-19T06:24:54.048Z,59.40
2019-03-19T06:27:22.792Z,59.50
2019-03-19T06:29:51.598Z,59.50
2019-03-19T06:32:20.449Z,59.40
2019-03-19T06:34:49.204Z,59.10
2019-03-19T06:37:17.944Z,59.10
2019-03-19T06:39:46.706Z,59.00
2019-03-19T06:42:15.516Z,59.10
2019-03-19T06:44:44.336Z,59.20
2019-03-19T06:47:13.097Z,59.20
2019-03-19T06:49:41.841Z,59.40
2019-03-19T06:52:10.610Z,59.30
2019-03-19T06:54:39.362Z,59.40
2019-03-19T06:57:08.124Z,59.40
2019-03-19T06:59:36.863Z,59.50
2019-03-19T07:02:05.628Z,59.60
2019-03-19T07:04:34.372Z,59.60
2019-03-19T07:07:03.174Z,59.70
2019-03-19T07:09:31.952Z,59.70
2019-03-19T07:12:01.730Z,59.90
2019-03-19T07:14:30.847Z,59.80
2019-03-19T07:16:59.713Z,59.70
2019-03-19T07:19:28.549Z,59.70
2019-03-19T07:21:57.328Z,59.70
2019-03-19T07:24:26.063Z,59.80
2019-03-19T07:26:54.808Z,59.90
2019-03-19T07:29:23.708Z,60.20
2019-03-19T07:31:52.473Z,60.00
2019-03-19T07:34:21.209Z,59.90
2019-03-19T07:36:50.041Z,59.60
2019-03-19T07:39:18.871Z,59.50
2019-03-19T07:41:47.605Z,59.50
2019-03-19T07:44:16.364Z,59.50
2019-03-19T07:46:46.088Z,59.60
2019-03-19T07:49:14.967Z,59.60
2019-03-19T07:51:43.720Z,59.70
2019-03-19T07:54:12.541Z,59.70
2019-03-19T07:56:41.288Z,59.80
2019-03-19T07:59:10.031Z,59.80
2019-03-19T08:01:38.882Z,59.80
2019-03-19T08:04:07.621Z,60.60
2019-03-19T08:06:36.493Z,60.00
2019-03-19T08:09:07.278Z,59.90
2019-03-19T08:11:36.033Z,59.90
2019-03-19T08:14:04.819Z,59.90
2019-03-19T08:16:33.685Z,59.80
2019-03-19T08:19:02.478Z,59.80
2019-03-19T08:21:31.223Z,59.80
2019-03-19T08:24:00.128Z,59.80
2019-03-19T08:26:28.875Z,59.80
2019-03-19T08:28:57.763Z,59.90
2019-03-19T08:31:26.541Z,59.90
2019-03-19T08:33:55.305Z,59.80
2019-03-19T08:36:24.177Z,59.70
2019-03-19T08:38:53.071Z,59.40
2019-03-19T08:41:21.869Z,59.40
2019-03-19T08:43:52.598Z,59.40
2019-03-19T08:46:21.251Z,59.40
2019-03-19T08:48:50.371Z,59.50
2019-03-19T08:51:19.295Z,59.50
2019-03-19T08:53:48.163Z,59.60
2019-03-19T08:56:16.921Z,59.60
2019-03-19T08:58:45.832Z,59.60
2019-03-19T09:01:14.687Z,59.50
2019-03-19T09:03:43.424Z,59.60
2019-03-19T09:06:12.183Z,59.60
2019-03-19T09:08:40.937Z,59.60
2019-03-19T09:11:09.662Z,59.60
2019-03-19T09:13:38.427Z,59.70
2019-03-19T09:16:07.253Z,59.60
2019-03-19T09:18:36.007Z,59.70
2019-03-19T09:21:04.753Z,59.60
2019-03-19T09:23:33.499Z,59.60
2019-03-19T09:26:02.301Z,59.60
2019-03-19T09:28:31.121Z,59.70
2019-03-19T09:30:59.913Z,59.70
2019-03-19T09:33:28.731Z,59.70
2019-03-19T09:35:57.565Z,59.70
2019-03-19T09:38:26.289Z,59.60
2019-03-19T09:40:55.031Z,59.40
2019-03-19T09:43:23.829Z,59.40
2019-03-19T09:45:52.598Z,59.30
2019-03-19T09:48:21.395Z,59.30
2019-03-19T09:50:50.145Z,59.40
2019-03-19T09:53:19.061Z,59.40
2019-03-19T09:55:47.828Z,59.50
2019-03-19T09:58:16.569Z,59.50
2019-03-19T10:00:45.419Z,59.60
2019-03-19T10:03:14.174Z,59.50
2019-03-19T10:05:42.915Z,59.70
2019-03-19T10:08:11.686Z,59.50
2019-03-19T10:10:40.675Z,59.30
2019-03-19T10:13:09.624Z,59.20
2019-03-19T10:15:38.520Z,59.40
2019-03-19T10:18:07.269Z,59.40
2019-03-19T10:20:36.129Z,58.90
2019-03-19T10:23:04.927Z,58.70
2019-03-19T10:25:33.685Z,58.90
2019-03-19T10:28:02.496Z,58.90
2019-03-19T10:30:31.248Z,59.00
2019-03-19T10:33:00.004Z,59.00
2019-03-19T10:35:28.757Z,59.00
2019-03-19T10:37:57.518Z,59.00
2019-03-19T10:40:26.265Z,59.10
2019-03-19T10:42:55.023Z,59.10
2019-03-19T10:45:23.867Z,59.00
2019-03-19T10:47:52.748Z,59.00
2019-03-19T10:50:21.658Z,59.10
2019-03-19T10:52:50.411Z,59.10
2019-03-19T10:55:19.176Z,59.00
2019-03-19T10:57:48.152Z,59.20
2019-03-19T11:00:21.099Z,59.00
2019-03-19T11:02:49.852Z,58.60
2019-03-19T11:05:18.637Z,58.70
2019-03-19T11:07:47.478Z,58.80
2019-03-19T11:10:16.373Z,58.90
2019-03-19T11:12:45.174Z,58.90
2019-03-19T11:15:15.664Z,58.80
2019-03-19T11:17:44.437Z,59.00
2019-03-19T11:20:14.728Z,59.20
2019-03-19T11:22:43.602Z,59.20
2019-03-19T11:25:13.508Z,59.20
2019-03-19T11:27:42.448Z,59.20
2019-03-19T11:30:14.500Z,59.40
2019-03-19T11:32:43.314Z,59.20
2019-03-19T11:35:12.233Z,59.20
2019-03-19T11:37:40.970Z,59.10
2019-03-19T11:40:10.217Z,59.10
2019-03-19T11:42:39.140Z,59.30
2019-03-19T11:45:08.500Z,59.20
2019-03-19T11:47:37.270Z,59.20
2019-03-19T11:50:08.338Z,59.20
2019-03-19T11:52:37.173Z,59.30
2019-03-19T11:55:07.084Z,59.20
2019-03-19T11:57:35.822Z,59.10
2019-03-19T12:00:11.227Z,59.20
2019-03-19T12:02:37.030Z,59.30
2019-03-19T12:05:06.612Z,59.80
2019-03-19T12:07:35.371Z,59.20
2019-03-19T12:10:04.642Z,59.20
2019-03-19T12:12:33.387Z,59.30
2019-03-19T12:15:02.294Z,59.40
2019-03-19T12:17:31.034Z,59.40
2019-03-19T12:19:59.800Z,59.20
2019-03-19T12:22:28.569Z,59.20
2019-03-19T12:24:57.310Z,59.00
2019-03-19T12:27:26.051Z,59.00
2019-03-19T12:29:54.803Z,59.20
2019-03-19T12:32:23.571Z,59.00
2019-03-19T12:34:52.306Z,59.00
2019-03-19T12:37:21.064Z,59.00
2019-03-19T12:39:49.862Z,59.00
2019-03-19T12:42:18.610Z,59.20
2019-03-19T12:44:47.394Z,59.20
2019-03-19T12:47:16.118Z,59.30
2019-03-19T12:49:44.875Z,59.40
2019-03-19T12:52:13.622Z,59.40
2019-03-19T12:54:42.626Z,59.40
2019-03-19T12:57:11.399Z,59.50
2019-03-19T12:59:42.516Z,59.30
2019-03-19T13:02:10.642Z,59.40
2019-03-19T13:04:39.390Z,59.50
2019-03-19T13:07:08.240Z,59.40
2019-03-19T13:09:37.019Z,59.40
2019-03-19T13:12:05.750Z,59.40
2019-03-19T13:14:34.515Z,59.40
2019-03-19T13:17:03.340Z,59.30
2019-03-19T13:19:32.108Z,59.20
2019-03-19T13:22:00.843Z,59.00
2019-03-19T13:24:29.640Z,58.90
2019-03-19T13:26:58.430Z,59.10
2019-03-19T13:29:27.198Z,59.40
2019-03-19T13:31:55.966Z,59.00
2019-03-19T13:34:24.728Z,59.10
2019-03-19T13:36:53.505Z,59.00
2019-03-19T13:39:22.262Z,59.10
2019-03-19T13:41:51.002Z,59.10
2019-03-19T13:44:19.749Z,59.10
2019-03-19T13:46:48.624Z,59.20
2019-03-19T13:49:17.460Z,59.10
2019-03-19T13:51:46.279Z,59.10
2019-03-19T13:54:16.727Z,59.20
2019-03-19T13:56:45.697Z,59.20
2019-03-19T13:59:14.448Z,59.20
2019-03-19T14:01:43.232Z,59.00
2019-03-19T14:04:11.987Z,59.10
2019-03-19T14:06:40.832Z,59.70
2019-03-19T14:09:09.872Z,59.10
2019-03-19T14:11:38.720Z,59.10
2019-03-19T14:14:07.534Z,59.00
2019-03-19T14:16:36.295Z,59.10
2019-03-19T14:19:05.098Z,59.10
2019-03-19T14:21:35.162Z,59.20
2019-03-19T14:24:03.952Z,59.20
2019-03-19T14:26:32.715Z,59.20
2019-03-19T14:29:01.447Z,59.20
2019-03-19T14:31:30.276Z,59.30
2019-03-19T14:33:59.039Z,59.20
2019-03-19T14:36:27.830Z,59.30
2019-03-19T14:38:56.670Z,59.20
2019-03-19T14:41:25.432Z,59.40
2019-03-19T14:43:54.257Z,59.40
2019-03-19T14:46:23.009Z,59.40
2019-03-19T14:48:51.849Z,59.40
2019-03-19T14:51:20.611Z,59.30
2019-03-19T14:53:49.599Z,59.30
2019-03-19T14:56:18.334Z,59.30
2019-03-19T14:58:47.090Z,59.20
2019-03-19T15:01:19.732Z,59.10
2019-03-19T15:03:46.347Z,59.10
2019-03-19T15:06:15.294Z,59.00
2019-03-19T15:08:44.039Z,59.00
2019-03-19T15:11:12.865Z,59.00
2019-03-19T15:13:41.617Z,59.00
2019-03-19T15:16:10.478Z,59.10
2019-03-19T15:18:39.328Z,59.10
2019-03-19T15:21:08.195Z,59.10
2019-03-19T15:23:36.943Z,59.10
2019-03-19T15:26:05.771Z,59.20
2019-03-19T15:28:34.643Z,59.20
2019-03-19T15:31:03.460Z,59.20
2019-03-19T15:33:32.290Z,59.20
2019-03-19T15:36:01.061Z,60.00
2019-03-19T15:38:29.841Z,59.20
2019-03-19T15:40:58.624Z,59.30
2019-03-19T15:43:27.495Z,59.20
2019-03-19T15:45:56.233Z,59.20
2019-03-19T15:48:25.024Z,59.20
2019-03-19T15:50:53.855Z,59.30
2019-03-19T15:53:22.618Z,59.20
2019-03-19T15:55:51.609Z,59.20
2019-03-19T15:58:20.442Z,59.30
2019-03-19T16:00:49.293Z,59.30
2019-03-19T16:03:18.197Z,59.20
2019-03-19T16:05:46.965Z,59.10
2019-03-19T16:08:15.739Z,59.10
2019-03-19T16:10:44.808Z,59.00
2019-03-19T16:13:13.645Z,59.00
2019-03-19T16:15:42.575Z,59.00
2019-03-19T16:18:11.559Z,59.00
2019-03-19T16:20:40.389Z,59.10
2019-03-19T16:23:09.151Z,59.00
2019-03-19T16:25:37.972Z,59.10
2019-03-19T16:28:06.777Z,59.10
2019-03-19T16:30:35.647Z,59.10
2019-03-19T16:33:04.448Z,59.10
2019-03-19T16:35:33.287Z,59.20
2019-03-19T16:38:02.153Z,59.20
2019-03-19T16:40:30.949Z,59.20
2019-03-19T16:42:59.742Z,59.10
2019-03-19T16:45:28.801Z,59.10
2019-03-19T16:47:57.644Z,59.10
2019-03-19T16:50:26.523Z,59.10
2019-03-19T16:52:55.273Z,59.10
2019-03-19T16:55:24.044Z,59.20
2019-03-19T16:57:52.887Z,59.10
2019-03-19T17:00:21.844Z,59.20
2019-03-19T17:02:50.655Z,59.20
2019-03-19T17:05:19.527Z,59.10
2019-03-19T17:07:48.375Z,59.10
2019-03-19T17:10:17.628Z,59.10
2019-03-19T17:12:46.429Z,59.00
2019-03-19T17:15:15.653Z,58.90
2019-03-19T17:17:44.409Z,58.80
2019-03-19T17:20:13.361Z,58.80
2019-03-19T17:22:42.163Z,58.90
2019-03-19T17:25:12.356Z,59.10
2019-03-19T17:27:41.231Z,58.80
2019-03-19T17:30:22.121Z,58.90
2019-03-19T17:32:51.042Z,58.80
2019-03-19T17:35:19.778Z,58.90
2019-03-19T17:37:48.587Z,59.00
2019-03-19T17:40:17.363Z,59.00
2019-03-19T17:42:46.153Z,59.00
2019-03-19T17:45:14.946Z,59.00
2019-03-19T17:47:43.803Z,59.00
2019-03-19T17:50:14.831Z,59.10
2019-03-19T17:52:43.792Z,59.00
2019-03-19T17:55:12.755Z,59.00
2019-03-19T17:57:41.577Z,59.00
2019-03-19T18:00:12.388Z,59.00
2019-03-19T18:02:41.244Z,59.00
2019-03-19T18:05:10.106Z,59.00
2019-03-19T18:07:38.893Z,58.90
2019-03-19T18:10:08.172Z,58.80
2019-03-19T18:12:37.107Z,58.90
2019-03-19T18:15:06.960Z,58.60
2019-03-19T18:17:35.820Z,58.60
2019-03-19T18:20:05.662Z,58.60
2019-03-19T18:22:34.534Z,58.70
2019-03-19T18:25:03.323Z,58.60
2019-03-19T18:27:32.156Z,58.60
2019-03-19T18:30:00.913Z,58.60
2019-03-19T18:32:34.959Z,58.60
2019-03-19T18:35:00.462Z,58.70
2019-03-19T18:37:29.349Z,58.70
2019-03-19T18:39:58.145Z,58.80
2019-03-19T18:42:27.040Z,58.80
2019-03-19T18:44:55.907Z,58.80
2019-03-19T18:47:24.675Z,58.80
2019-03-19T18:49:53.422Z,58.90
2019-03-19T18:52:22.266Z,58.90
2019-03-19T18:54:51.236Z,58.90
2019-03-19T18:57:20.094Z,58.90
2019-03-19T18:59:48.937Z,58.90
2019-03-19T19:02:17.701Z,58.90
2019-03-19T19:04:46.480Z,58.80
2019-03-19T19:07:15.328Z,58.80
2019-03-19T19:09:44.113Z,58.80
2019-03-19T19:12:12.905Z,58.80
2019-03-19T19:14:41.666Z,58.60
2019-03-19T19:17:10.469Z,58.60
2019-03-19T19:19:39.312Z,58.60
2019-03-19T19:22:08.079Z,58.60
2019-03-19T19:24:36.870Z,58.60
2019-03-19T19:27:05.696Z,58.60
2019-03-19T19:29:34.527Z,58.60
2019-03-19T19:32:03.297Z,58.60
2019-03-19T19:34:32.159Z,58.60
2019-03-19T19:37:01.010Z,58.60
2019-03-19T19:39:29.827Z,58.70
2019-03-19T19:41:58.696Z,58.70
2019-03-19T19:44:29.894Z,58.70
2019-03-19T19:46:58.120Z,58.70
2019-03-19T19:49:26.863Z,58.60
2019-03-19T19:51:55.670Z,58.70
2019-03-19T19:54:24.524Z,58.70
2019-03-19T19:56:53.270Z,58.70
2019-03-19T19:59:22.082Z,58.80
2019-03-19T20:01:50.841Z,58.80
2019-03-19T20:04:19.614Z,58.80
2019-03-19T20:06:48.450Z,58.80
2019-03-19T20:09:17.214Z,58.70
2019-03-19T20:11:46.050Z,58.70
2019-03-19T20:14:14.802Z,58.60
2019-03-19T20:16:43.626Z,58.60
2019-03-19T20:19:12.484Z,58.40
2019-03-19T20:21:41.304Z,58.00
2019-03-19T20:24:10.194Z,58.40
2019-03-19T20:26:39.022Z,58.40
2019-03-19T20:29:07.809Z,58.30
2019-03-19T20:31:36.720Z,58.50
2019-03-19T20:34:05.533Z,58.40
2019-03-19T20:36:34.277Z,58.40
2019-03-19T20:39:03.224Z,58.40
2019-03-19T20:41:32.102Z,58.40
2019-03-19T20:44:00.854Z,58.40
2019-03-19T20:46:29.744Z,58.50
2019-03-19T20:48:58.877Z,58.40
2019-03-19T20:51:27.819Z,58.40
2019-03-19T20:53:57.111Z,58.50
2019-03-19T20:56:25.858Z,58.40
2019-03-19T20:58:54.686Z,58.40
2019-03-19T21:01:23.433Z,58.40
2019-03-19T21:03:52.311Z,58.40
2019-03-19T21:06:21.058Z,58.40
2019-03-19T21:08:49.806Z,58.40
2019-03-19T21:11:18.590Z,58.40
2019-03-19T21:13:47.344Z,58.40
2019-03-19T21:16:16.133Z,58.30
2019-03-19T21:18:45.077Z,58.30
2019-03-19T21:21:13.860Z,58.20
2019-03-19T21:23:42.725Z,58.10
2019-03-19T21:26:11.462Z,58.10
2019-03-19T21:28:40.398Z,58.20
2019-03-19T21:31:09.430Z,58.20
2019-03-19T21:33:38.210Z,58.10
2019-03-19T21:36:07.080Z,58.10
2019-03-19T21:38:35.846Z,58.20
2019-03-19T21:41:04.619Z,58.20
2019-03-19T21:43:33.382Z,58.20
2019-03-19T21:46:02.221Z,58.20
2019-03-19T21:48:31.002Z,58.30
2019-03-19T21:50:59.751Z,58.20
2019-03-19T21:53:28.482Z,58.10
2019-03-19T21:55:57.256Z,58.20
2019-03-19T21:58:26.058Z,58.20
2019-03-19T22:00:54.840Z,58.20
2019-03-19T22:03:23.661Z,58.20
2019-03-19T22:05:52.566Z,58.30
2019-03-19T22:08:21.297Z,58.20
2019-03-19T22:10:50.129Z,58.20
2019-03-19T22:13:18.878Z,58.20
2019-03-19T22:15:47.666Z,58.20
2019-03-19T22:18:16.420Z,58.00
2019-03-19T22:20:45.172Z,57.90
2019-03-19T22:23:13.912Z,57.90
2019-03-19T22:25:42.693Z,58.00
2019-03-19T22:28:11.463Z,58.00
2019-03-19T22:30:40.315Z,58.00
2019-03-19T22:33:09.209Z,58.00
2019-03-19T22:35:38.045Z,58.00
2019-03-19T22:38:06.879Z,58.10
2019-03-19T22:40:35.609Z,58.00
2019-03-19T22:43:04.426Z,58.10
2019-03-19T22:45:33.309Z,58.10
2019-03-19T22:48:02.061Z,58.20
2019-03-19T22:50:30.826Z,58.10
2019-03-19T22:52:59.643Z,58.10
2019-03-19T22:55:29.519Z,58.20
2019-03-19T22:57:58.435Z,58.00
2019-03-19T23:00:39.585Z,57.90
2019-03-19T23:03:09.224Z,57.90
2019-03-19T23:05:37.984Z,57.80
2019-03-19T23:08:06.833Z,57.90
2019-03-19T23:10:35.753Z,57.90
2019-03-19T23:13:04.594Z,57.90
2019-03-19T23:15:33.365Z,58.00
2019-03-19T23:18:02.121Z,58.00
2019-03-19T23:20:30.953Z,57.90
2019-03-19T23:22:59.805Z,57.90
2019-03-19T23:25:28.542Z,58.00
2019-03-19T23:27:57.311Z,58.00
2019-03-19T23:30:26.149Z,58.00
2019-03-19T23:32:54.924Z,58.00
2019-03-19T23:35:23.743Z,58.00
2019-03-19T23:37:52.509Z,58.00
2019-03-19T23:40:21.305Z,58.10
2019-03-19T23:42:50.159Z,58.00
2019-03-19T23:45:18.967Z,58.00
2019-03-19T23:47:47.847Z,58.10
2019-03-19T23:50:16.615Z,58.00
2019-03-19T23:52:45.522Z,58.10
2019-03-19T23:55:14.258Z,58.10
2019-03-19T23:57:42.996Z,57.90
